Terminal Aerodrome Forecast
Issued by NWS

Home | Current Version | Previous Version | Text Only | Print | Product List | Glossary On
Versions: 1 2 3 4 5 6 7 8 9 10 11 12 13 14 15
000
FTUS45 KVEF 181100
TAFVGT
TAF
KVGT 181120Z 1812/1912 08003KT P6SM FEW060 OVC090
     FM181500 34005KT P6SM SCT060 BKN100
     FM182000 VRB04KT P6SM FEW060 SCT100
     FM190300 33005KT P6SM FEW080 SCT250=

USA.gov is the U.S. government's official web portal to all federal, state and local government web resources and services.